LFHP/LPY METAR and TAF weather

Enter ICAO airport designator
Station Type Date Time Source
LFHP METAR 2019/08/23 18:30 UTC NOAA

LFHP 231830Z AUTO 01002KT CAVOK 21/09 Q1023


Station Type Date Time Source
LFHP Decoded METAR 2019/08/23 18:30 UTC NOAA

Station name not available
Aug 23, 2019 - 02:30 PM EDT / 2019.08.23 1830 UTC
Wind: from the N (010 degrees) at 2 MPH (2 KT):0
Visibility: greater than 7 mile(s):0
Temperature: 69 F (21 C)
Dew Point: 48 F (9 C)
Relative Humidity: 46%
Pressure (altimeter): 30.21 in. Hg (1023 hPa)
ob: LFHP 231830Z AUTO 01002KT CAVOK 21/09 Q1023
cycle: 18

Station Type Date Time Source
LFHP TAF UTC NOAA

Error!

Example: see airport list